Airfield :
LOGIN :

Register | Disclaimer

   EN    FR    IT 

 










Legend :    VFR   Marginal VFR   IFR   Intensive IFR   Very Intensive IFR
Visi :
Ceiling :
>= 8 km
>= 3000ft
5 to 8 km
1000 to 3000 ft
1500m to 5 km
500 to 1000 ft
800 to 1500m
200 to 500 ft
< 800m
< 200 ft
Symbols :   Thunderstorms  Fog  Heavy snow  Heavy precipitations  Wind > 20 kt
SIGMETs :     Misc.  Thunderstorms  Icing  Turbulence  Mountain Waves  Volcanic Ashes






- Airport Elevation : 20 ft


EBFN - Koksijde

CURRENT METAR :
  • 070413Z AUTO VRB01KT 0000 -RA NCD 15/15 Q1018 RED

EXPIRED METARs :
  • 070325Z AUTO VRB01KT 2400 BR NCD 15/15 Q1018 YLO
  • 070255Z AUTO VRB01KT 2400 BR NCD 15/15 Q1018 YLO
  • 070243Z AUTO VRB01KT 0350 BR NCD 16/15 Q1018 RED
  • 070237Z AUTO VRB01KT 2800 BR NCD 16/15 Q1018 YLO
  • 070216Z AUTO VRB01KT 2400 BR NCD 16/16 Q1018 YLO
  • 070204Z AUTO VRB01KT 1300 BR NCD 16/15 Q1018 AMB
  • 070155Z AUTO VRB01KT 2700 BR NCD 16/15 Q1018 YLO
  • 070147Z AUTO VRB01KT 3600 NCD 16/15 Q1018 YLO
  • 070125Z AUTO VRB01KT 3500 BR NCD 16/15 Q1018 YLO
  • 070121Z AUTO VRB01KT 4900 NCD 16/16 Q1018 GRN

TAF TAF EBFN
Valid from the 06 at 19:00 until the 07 at 07:00 UTC


061541Z 0619/0707 03007KT 9999 SCT250
BECMG 0702/0704 15005KT



MET'MAP, your aeronautical weather chart ! - Copyright ORBIFLY December 2007 - Disclaimer

ORBIFLY MET'MAP TEAM :

Programming & Development : Alexandra Zaïnal
Concept & original design : Baudouin d'Aumeries
Assistance for programming : Marc-Olivier Méhu
Technical & hardware support : Manuel Goepfert

Contact : metmap@orbifly.com




SOURCES & CREDITS :

   NOAA